sensor_id;sensor_type;location;lat;lon;timestamp;P1;durP1;ratioP1;P2;durP2;ratioP2
19341;SDS011;9807;48.258;12.690;2023-03-01T00:01:36;28.23;;;16.27;;
19341;SDS011;9807;48.258;12.690;2023-03-01T00:04:02;22.27;;;14.33;;
19341;SDS011;9807;48.258;12.690;2023-03-01T00:06:28;25.93;;;15.97;;
19341;SDS011;9807;48.258;12.690;2023-03-01T00:08:54;25.63;;;15.63;;
19341;SDS011;9807;48.258;12.690;2023-03-01T00:11:24;24.50;;;14.53;;
19341;SDS011;9807;48.258;12.690;2023-03-01T00:13:53;26.63;;;15.77;;
19341;SDS011;9807;48.258;12.690;2023-03-01T00:16:27;23.10;;;14.67;;
19341;SDS011;9807;48.258;12.690;2023-03-01T00:18:55;23.10;;;14.97;;
19341;SDS011;9807;48.258;12.690;2023-03-01T00:21:22;24.23;;;15.23;;
19341;SDS011;9807;48.258;12.690;2023-03-01T00:23:48;22.70;;;14.87;;
19341;SDS011;9807;48.258;12.690;2023-03-01T00:26:15;24.87;;;14.67;;
19341;SDS011;9807;48.258;12.690;2023-03-01T00:28:42;23.73;;;14.30;;
19341;SDS011;9807;48.258;12.690;2023-03-01T00:31:12;25.97;;;15.33;;
19341;SDS011;9807;48.258;12.690;2023-03-01T00:33:43;24.27;;;14.87;;
19341;SDS011;9807;48.258;12.690;2023-03-01T00:36:13;23.00;;;15.03;;
19341;SDS011;9807;48.258;12.690;2023-03-01T00:38:42;27.87;;;16.27;;
19341;SDS011;9807;48.258;12.690;2023-03-01T00:41:10;22.77;;;14.90;;
19341;SDS011;9807;48.258;12.690;2023-03-01T00:43:39;26.10;;;15.83;;
19341;SDS011;9807;48.258;12.690;2023-03-01T00:46:06;27.00;;;15.27;;
19341;SDS011;9807;48.258;12.690;2023-03-01T00:48:37;25.97;;;14.83;;
19341;SDS011;9807;48.258;12.690;2023-03-01T00:51:10;21.93;;;14.50;;
19341;SDS011;9807;48.258;12.690;2023-03-01T00:53:38;24.47;;;15.03;;
19341;SDS011;9807;48.258;12.690;2023-03-01T00:56:05;30.53;;;16.70;;
19341;SDS011;9807;48.258;12.690;2023-03-01T00:58:32;24.40;;;15.77;;
19341;SDS011;9807;48.258;12.690;2023-03-01T01:00:59;23.40;;;14.97;;
19341;SDS011;9807;48.258;12.690;2023-03-01T01:03:27;27.27;;;15.50;;
19341;SDS011;9807;48.258;12.690;2023-03-01T01:05:53;23.20;;;14.03;;
19341;SDS011;9807;48.258;12.690;2023-03-01T01:08:19;21.80;;;14.17;;
19341;SDS011;9807;48.258;12.690;2023-03-01T01:10:48;20.13;;;13.70;;
19341;SDS011;9807;48.258;12.690;2023-03-01T01:13:14;21.33;;;14.63;;
19341;SDS011;9807;48.258;12.690;2023-03-01T01:15:40;24.13;;;14.83;;
19341;SDS011;9807;48.258;12.690;2023-03-01T01:18:08;23.20;;;14.63;;
19341;SDS011;9807;48.258;12.690;2023-03-01T01:20:34;26.47;;;16.37;;
19341;SDS011;9807;48.258;12.690;2023-03-01T01:23:01;23.87;;;14.67;;
19341;SDS011;9807;48.258;12.690;2023-03-01T01:25:27;23.63;;;14.90;;
19341;SDS011;9807;48.258;12.690;2023-03-01T01:27:53;23.97;;;14.80;;
19341;SDS011;9807;48.258;12.690;2023-03-01T01:30:19;22.87;;;14.10;;
19341;SDS011;9807;48.258;12.690;2023-03-01T01:32:45;21.33;;;12.97;;
19341;SDS011;9807;48.258;12.690;2023-03-01T01:35:10;21.83;;;13.40;;
19341;SDS011;9807;48.258;12.690;2023-03-01T01:37:36;20.43;;;12.67;;
19341;SDS011;9807;48.258;12.690;2023-03-01T01:40:02;22.67;;;13.47;;
19341;SDS011;9807;48.258;12.690;2023-03-01T01:42:29;21.43;;;13.23;;
19341;SDS011;9807;48.258;12.690;2023-03-01T01:47:52;25.27;;;15.20;;
19341;SDS011;9807;48.258;12.690;2023-03-01T01:50:21;21.23;;;13.77;;
19341;SDS011;9807;48.258;12.690;2023-03-01T01:52:48;22.80;;;14.53;;
19341;SDS011;9807;48.258;12.690;2023-03-01T01:55:16;18.97;;;12.83;;
19341;SDS011;9807;48.258;12.690;2023-03-01T01:57:50;20.23;;;12.83;;
19341;SDS011;9807;48.258;12.690;2023-03-01T02:00:20;18.23;;;12.13;;
19341;SDS011;9807;48.258;12.690;2023-03-01T02:02:48;22.60;;;13.83;;
19341;SDS011;9807;48.258;12.690;2023-03-01T02:05:38;24.17;;;15.23;;
19341;SDS011;9807;48.258;12.690;2023-03-01T02:08:15;24.30;;;14.33;;
19341;SDS011;9807;48.258;12.690;2023-03-01T02:10:43;21.07;;;14.20;;
19341;SDS011;9807;48.258;12.690;2023-03-01T02:13:11;23.87;;;14.40;;
19341;SDS011;9807;48.258;12.690;2023-03-01T02:15:38;22.83;;;14.77;;
19341;SDS011;9807;48.258;12.690;2023-03-01T02:18:05;23.23;;;14.63;;
19341;SDS011;9807;48.258;12.690;2023-03-01T02:20:57;26.00;;;16.00;;
19341;SDS011;9807;48.258;12.690;2023-03-01T02:23:33;21.87;;;13.47;;
19341;SDS011;9807;48.258;12.690;2023-03-01T02:26:14;26.67;;;15.90;;
19341;SDS011;9807;48.258;12.690;2023-03-01T02:28:42;20.50;;;14.33;;
19341;SDS011;9807;48.258;12.690;2023-03-01T02:31:10;22.43;;;15.47;;
19341;SDS011;9807;48.258;12.690;2023-03-01T02:33:56;22.57;;;14.17;;
19341;SDS011;9807;48.258;12.690;2023-03-01T02:36:24;25.63;;;16.40;;
19341;SDS011;9807;48.258;12.690;2023-03-01T02:38:55;24.53;;;14.53;;
19341;SDS011;9807;48.258;12.690;2023-03-01T02:41:23;21.87;;;13.50;;
19341;SDS011;9807;48.258;12.690;2023-03-01T02:43:51;20.60;;;12.40;;
19341;SDS011;9807;48.258;12.690;2023-03-01T02:46:19;23.80;;;13.77;;
19341;SDS011;9807;48.258;12.690;2023-03-01T02:48:49;22.33;;;13.53;;
19341;SDS011;9807;48.258;12.690;2023-03-01T02:57:06;19.90;;;12.20;;
19341;SDS011;9807;48.258;12.690;2023-03-01T02:59:35;20.40;;;13.10;;
19341;SDS011;9807;48.258;12.690;2023-03-01T03:02:06;24.20;;;14.77;;
19341;SDS011;9807;48.258;12.690;2023-03-01T03:04:32;23.37;;;14.93;;
19341;SDS011;9807;48.258;12.690;2023-03-01T03:06:58;25.77;;;14.10;;
19341;SDS011;9807;48.258;12.690;2023-03-01T03:09:24;26.27;;;15.80;;
19341;SDS011;9807;48.258;12.690;2023-03-01T03:11:50;27.80;;;16.50;;
19341;SDS011;9807;48.258;12.690;2023-03-01T03:14:16;30.10;;;17.17;;
19341;SDS011;9807;48.258;12.690;2023-03-01T03:16:47;24.00;;;15.10;;
19341;SDS011;9807;48.258;12.690;2023-03-01T03:19:14;27.83;;;15.73;;
19341;SDS011;9807;48.258;12.690;2023-03-01T03:21:42;22.93;;;14.37;;
19341;SDS011;9807;48.258;12.690;2023-03-01T03:24:11;26.00;;;16.03;;
19341;SDS011;9807;48.258;12.690;2023-03-01T03:26:36;24.70;;;14.23;;
19341;SDS011;9807;48.258;12.690;2023-03-01T03:29:02;27.33;;;15.47;;
19341;SDS011;9807;48.258;12.690;2023-03-01T03:31:28;24.77;;;16.00;;
19341;SDS011;9807;48.258;12.690;2023-03-01T03:33:54;25.80;;;16.17;;
19341;SDS011;9807;48.258;12.690;2023-03-01T03:36:25;24.43;;;14.70;;
19341;SDS011;9807;48.258;12.690;2023-03-01T03:38:51;28.30;;;16.33;;
19341;SDS011;9807;48.258;12.690;2023-03-01T03:41:17;24.57;;;13.53;;
19341;SDS011;9807;48.258;12.690;2023-03-01T03:43:43;22.57;;;14.43;;
19341;SDS011;9807;48.258;12.690;2023-03-01T03:46:10;25.50;;;15.47;;
19341;SDS011;9807;48.258;12.690;2023-03-01T03:48:37;26.17;;;14.93;;
19341;SDS011;9807;48.258;12.690;2023-03-01T03:51:13;21.33;;;13.57;;
19341;SDS011;9807;48.258;12.690;2023-03-01T03:53:42;26.90;;;16.07;;
19341;SDS011;9807;48.258;12.690;2023-03-01T03:56:09;24.23;;;14.17;;
19341;SDS011;9807;48.258;12.690;2023-03-01T03:58:35;23.17;;;14.70;;
19341;SDS011;9807;48.258;12.690;2023-03-01T04:01:02;24.53;;;15.10;;
19341;SDS011;9807;48.258;12.690;2023-03-01T04:03:28;26.93;;;15.73;;
19341;SDS011;9807;48.258;12.690;2023-03-01T04:05:56;23.90;;;15.13;;
19341;SDS011;9807;48.258;12.690;2023-03-01T04:08:26;22.50;;;13.87;;
19341;SDS011;9807;48.258;12.690;2023-03-01T04:10:56;23.53;;;13.60;;
19341;SDS011;9807;48.258;12.690;2023-03-01T04:13:47;27.53;;;15.27;;
19341;SDS011;9807;48.258;12.690;2023-03-01T04:16:13;24.53;;;15.03;;
19341;SDS011;9807;48.258;12.690;2023-03-01T04:18:39;24.73;;;14.83;;
19341;SDS011;9807;48.258;12.690;2023-03-01T04:21:05;32.20;;;16.47;;
19341;SDS011;9807;48.258;12.690;2023-03-01T04:23:30;24.73;;;15.37;;
19341;SDS011;9807;48.258;12.690;2023-03-01T04:25:57;24.53;;;14.67;;
19341;SDS011;9807;48.258;12.690;2023-03-01T04:28:28;24.03;;;15.53;;
19341;SDS011;9807;48.258;12.690;2023-03-01T04:31:05;21.73;;;13.20;;
19341;SDS011;9807;48.258;12.690;2023-03-01T04:33:44;25.10;;;15.30;;
19341;SDS011;9807;48.258;12.690;2023-03-01T04:36:19;24.47;;;14.03;;
19341;SDS011;9807;48.258;12.690;2023-03-01T04:38:48;27.40;;;16.20;;
19341;SDS011;9807;48.258;12.690;2023-03-01T04:41:16;24.57;;;14.87;;
19341;SDS011;9807;48.258;12.690;2023-03-01T04:43:42;23.73;;;14.50;;
19341;SDS011;9807;48.258;12.690;2023-03-01T04:46:10;22.80;;;15.03;;
19341;SDS011;9807;48.258;12.690;2023-03-01T04:48:38;22.33;;;13.03;;
19341;SDS011;9807;48.258;12.690;2023-03-01T04:51:06;22.73;;;13.67;;
19341;SDS011;9807;48.258;12.690;2023-03-01T04:53:33;22.20;;;13.90;;
19341;SDS011;9807;48.258;12.690;2023-03-01T04:56:03;25.07;;;13.80;;
19341;SDS011;9807;48.258;12.690;2023-03-01T04:58:31;22.93;;;13.73;;
19341;SDS011;9807;48.258;12.690;2023-03-01T05:00:58;21.50;;;13.57;;
19341;SDS011;9807;48.258;12.690;2023-03-01T05:03:24;25.27;;;14.97;;
19341;SDS011;9807;48.258;12.690;2023-03-01T05:05:50;20.30;;;12.80;;
19341;SDS011;9807;48.258;12.690;2023-03-01T05:08:17;24.80;;;14.30;;
19341;SDS011;9807;48.258;12.690;2023-03-01T05:10:44;22.77;;;13.60;;
19341;SDS011;9807;48.258;12.690;2023-03-01T05:13:14;22.70;;;12.93;;
19341;SDS011;9807;48.258;12.690;2023-03-01T05:15:46;22.87;;;14.07;;
19341;SDS011;9807;48.258;12.690;2023-03-01T05:18:14;24.87;;;13.97;;
19341;SDS011;9807;48.258;12.690;2023-03-01T05:20:39;21.20;;;13.20;;
19341;SDS011;9807;48.258;12.690;2023-03-01T05:23:06;21.53;;;13.77;;
19341;SDS011;9807;48.258;12.690;2023-03-01T05:25:32;22.47;;;13.53;;
19341;SDS011;9807;48.258;12.690;2023-03-01T05:28:00;23.50;;;14.40;;
19341;SDS011;9807;48.258;12.690;2023-03-01T05:30:34;25.87;;;14.40;;
19341;SDS011;9807;48.258;12.690;2023-03-01T05:33:00;23.67;;;13.77;;
19341;SDS011;9807;48.258;12.690;2023-03-01T05:35:26;23.83;;;13.23;;
19341;SDS011;9807;48.258;12.690;2023-03-01T05:37:54;22.50;;;12.87;;
19341;SDS011;9807;48.258;12.690;2023-03-01T05:40:21;20.67;;;12.70;;
19341;SDS011;9807;48.258;12.690;2023-03-01T05:42:50;23.50;;;14.47;;
19341;SDS011;9807;48.258;12.690;2023-03-01T05:45:20;23.57;;;12.73;;
19341;SDS011;9807;48.258;12.690;2023-03-01T05:47:47;20.50;;;13.23;;
19341;SDS011;9807;48.258;12.690;2023-03-01T05:50:15;18.37;;;11.60;;
19341;SDS011;9807;48.258;12.690;2023-03-01T05:52:50;25.13;;;13.77;;
19341;SDS011;9807;48.258;12.690;2023-03-01T05:55:18;21.10;;;12.63;;
19341;SDS011;9807;48.258;12.690;2023-03-01T05:57:45;20.00;;;12.57;;
19341;SDS011;9807;48.258;12.690;2023-03-01T06:00:12;24.80;;;14.50;;
19341;SDS011;9807;48.258;12.690;2023-03-01T06:02:40;20.17;;;12.37;;
19341;SDS011;9807;48.258;12.690;2023-03-01T06:05:06;18.20;;;11.83;;
19341;SDS011;9807;48.258;12.690;2023-03-01T06:07:36;19.90;;;12.30;;
19341;SDS011;9807;48.258;12.690;2023-03-01T06:10:06;20.03;;;11.30;;
19341;SDS011;9807;48.258;12.690;2023-03-01T06:12:33;20.17;;;11.77;;
19341;SDS011;9807;48.258;12.690;2023-03-01T06:15:01;19.30;;;11.90;;
19341;SDS011;9807;48.258;12.690;2023-03-01T06:17:29;23.33;;;12.70;;
19341;SDS011;9807;48.258;12.690;2023-03-01T06:19:56;23.13;;;13.30;;
19341;SDS011;9807;48.258;12.690;2023-03-01T06:22:22;21.77;;;12.47;;
19341;SDS011;9807;48.258;12.690;2023-03-01T06:24:47;29.13;;;16.40;;
19341;SDS011;9807;48.258;12.690;2023-03-01T06:27:13;22.10;;;13.43;;
19341;SDS011;9807;48.258;12.690;2023-03-01T06:29:39;24.80;;;13.13;;
19341;SDS011;9807;48.258;12.690;2023-03-01T06:32:05;22.07;;;13.30;;
19341;SDS011;9807;48.258;12.690;2023-03-01T06:34:33;20.87;;;12.20;;
19341;SDS011;9807;48.258;12.690;2023-03-01T06:37:00;26.20;;;14.43;;
19341;SDS011;9807;48.258;12.690;2023-03-01T06:39:28;27.13;;;14.37;;
19341;SDS011;9807;48.258;12.690;2023-03-01T06:41:53;20.47;;;12.73;;
19341;SDS011;9807;48.258;12.690;2023-03-01T06:44:19;23.47;;;14.50;;
19341;SDS011;9807;48.258;12.690;2023-03-01T06:46:45;19.43;;;12.13;;
19341;SDS011;9807;48.258;12.690;2023-03-01T06:49:11;26.67;;;15.07;;
19341;SDS011;9807;48.258;12.690;2023-03-01T06:51:37;23.07;;;13.50;;
19341;SDS011;9807;48.258;12.690;2023-03-01T06:54:04;18.77;;;11.63;;
19341;SDS011;9807;48.258;12.690;2023-03-01T06:56:30;30.77;;;16.47;;
19341;SDS011;9807;48.258;12.690;2023-03-01T06:58:57;23.07;;;13.13;;
19341;SDS011;9807;48.258;12.690;2023-03-01T07:01:23;23.73;;;14.27;;
19341;SDS011;9807;48.258;12.690;2023-03-01T07:03:49;20.33;;;12.20;;
19341;SDS011;9807;48.258;12.690;2023-03-01T07:06:14;23.90;;;13.00;;
19341;SDS011;9807;48.258;12.690;2023-03-01T07:08:40;21.80;;;12.73;;
19341;SDS011;9807;48.258;12.690;2023-03-01T07:11:09;23.07;;;14.13;;
19341;SDS011;9807;48.258;12.690;2023-03-01T07:13:37;26.20;;;14.87;;
19341;SDS011;9807;48.258;12.690;2023-03-01T07:16:03;27.53;;;16.20;;
19341;SDS011;9807;48.258;12.690;2023-03-01T07:18:29;30.90;;;16.63;;
19341;SDS011;9807;48.258;12.690;2023-03-01T07:20:55;33.53;;;15.97;;
19341;SDS011;9807;48.258;12.690;2023-03-01T07:23:21;29.23;;;16.17;;
19341;SDS011;9807;48.258;12.690;2023-03-01T07:25:53;27.80;;;15.67;;
19341;SDS011;9807;48.258;12.690;2023-03-01T07:28:19;26.40;;;16.63;;
19341;SDS011;9807;48.258;12.690;2023-03-01T07:30:48;34.00;;;20.30;;
19341;SDS011;9807;48.258;12.690;2023-03-01T07:33:16;27.07;;;16.40;;
19341;SDS011;9807;48.258;12.690;2023-03-01T07:35:42;29.40;;;17.67;;
19341;SDS011;9807;48.258;12.690;2023-03-01T07:38:08;31.67;;;18.13;;
19341;SDS011;9807;48.258;12.690;2023-03-01T07:40:37;33.67;;;18.77;;
19341;SDS011;9807;48.258;12.690;2023-03-01T07:43:03;30.77;;;18.50;;
19341;SDS011;9807;48.258;12.690;2023-03-01T07:45:28;31.10;;;17.93;;
19341;SDS011;9807;48.258;12.690;2023-03-01T07:47:55;31.63;;;19.67;;
19341;SDS011;9807;48.258;12.690;2023-03-01T07:50:23;30.27;;;17.57;;
19341;SDS011;9807;48.258;12.690;2023-03-01T07:52:49;29.90;;;18.13;;
19341;SDS011;9807;48.258;12.690;2023-03-01T07:55:15;34.17;;;19.07;;
19341;SDS011;9807;48.258;12.690;2023-03-01T07:57:41;32.90;;;19.13;;
19341;SDS011;9807;48.258;12.690;2023-03-01T08:00:09;32.10;;;19.63;;
19341;SDS011;9807;48.258;12.690;2023-03-01T08:02:36;32.17;;;18.90;;
19341;SDS011;9807;48.258;12.690;2023-03-01T08:05:02;31.63;;;20.07;;
19341;SDS011;9807;48.258;12.690;2023-03-01T08:07:28;29.60;;;18.43;;
19341;SDS011;9807;48.258;12.690;2023-03-01T08:09:54;33.10;;;18.63;;
19341;SDS011;9807;48.258;12.690;2023-03-01T08:12:20;35.47;;;21.17;;
19341;SDS011;9807;48.258;12.690;2023-03-01T08:14:46;32.90;;;18.77;;
19341;SDS011;9807;48.258;12.690;2023-03-01T08:17:18;34.10;;;19.47;;
19341;SDS011;9807;48.258;12.690;2023-03-01T08:19:44;34.47;;;19.23;;
19341;SDS011;9807;48.258;12.690;2023-03-01T08:22:10;37.83;;;19.33;;
19341;SDS011;9807;48.258;12.690;2023-03-01T08:24:36;34.20;;;20.03;;
19341;SDS011;9807;48.258;12.690;2023-03-01T08:27:02;33.83;;;19.13;;
19341;SDS011;9807;48.258;12.690;2023-03-01T08:29:30;34.97;;;20.07;;
19341;SDS011;9807;48.258;12.690;2023-03-01T08:31:56;34.80;;;20.03;;
19341;SDS011;9807;48.258;12.690;2023-03-01T08:34:25;35.10;;;20.10;;
19341;SDS011;9807;48.258;12.690;2023-03-01T08:36:51;37.13;;;20.43;;
19341;SDS011;9807;48.258;12.690;2023-03-01T08:39:18;36.77;;;20.90;;
19341;SDS011;9807;48.258;12.690;2023-03-01T08:41:45;40.07;;;21.27;;
19341;SDS011;9807;48.258;12.690;2023-03-01T08:44:12;34.30;;;20.17;;
19341;SDS011;9807;48.258;12.690;2023-03-01T08:46:41;38.93;;;20.67;;
19341;SDS011;9807;48.258;12.690;2023-03-01T08:49:11;37.83;;;20.23;;
19341;SDS011;9807;48.258;12.690;2023-03-01T08:51:41;33.47;;;20.60;;
19341;SDS011;9807;48.258;12.690;2023-03-01T08:54:13;37.50;;;21.57;;
19341;SDS011;9807;48.258;12.690;2023-03-01T08:56:43;40.73;;;22.10;;
19341;SDS011;9807;48.258;12.690;2023-03-01T08:59:13;34.00;;;20.47;;
19341;SDS011;9807;48.258;12.690;2023-03-01T09:01:40;38.50;;;21.73;;
19341;SDS011;9807;48.258;12.690;2023-03-01T09:04:12;38.97;;;22.17;;
19341;SDS011;9807;48.258;12.690;2023-03-01T09:06:42;39.10;;;20.87;;
19341;SDS011;9807;48.258;12.690;2023-03-01T09:09:12;39.87;;;21.93;;
19341;SDS011;9807;48.258;12.690;2023-03-01T09:11:40;34.73;;;21.03;;
19341;SDS011;9807;48.258;12.690;2023-03-01T09:14:06;36.67;;;21.00;;
19341;SDS011;9807;48.258;12.690;2023-03-01T09:16:32;44.47;;;22.73;;
19341;SDS011;9807;48.258;12.690;2023-03-01T09:19:01;38.27;;;21.33;;
19341;SDS011;9807;48.258;12.690;2023-03-01T09:21:31;38.27;;;21.80;;
19341;SDS011;9807;48.258;12.690;2023-03-01T09:23:57;40.10;;;21.90;;
19341;SDS011;9807;48.258;12.690;2023-03-01T09:26:23;43.67;;;21.77;;
19341;SDS011;9807;48.258;12.690;2023-03-01T09:28:50;40.47;;;21.77;;
19341;SDS011;9807;48.258;12.690;2023-03-01T09:31:19;37.37;;;22.40;;
19341;SDS011;9807;48.258;12.690;2023-03-01T09:33:46;39.57;;;22.80;;
19341;SDS011;9807;48.258;12.690;2023-03-01T09:36:17;37.87;;;22.00;;
19341;SDS011;9807;48.258;12.690;2023-03-01T09:38:46;48.73;;;23.33;;
19341;SDS011;9807;48.258;12.690;2023-03-01T09:41:20;43.00;;;22.77;;
19341;SDS011;9807;48.258;12.690;2023-03-01T09:46:54;39.83;;;22.97;;
19341;SDS011;9807;48.258;12.690;2023-03-01T09:49:23;42.93;;;22.93;;
19341;SDS011;9807;48.258;12.690;2023-03-01T09:54:21;42.43;;;22.43;;
19341;SDS011;9807;48.258;12.690;2023-03-01T09:57:05;41.87;;;23.03;;
19341;SDS011;9807;48.258;12.690;2023-03-01T09:59:40;44.47;;;22.23;;
19341;SDS011;9807;48.258;12.690;2023-03-01T10:04:55;41.00;;;21.83;;
19341;SDS011;9807;48.258;12.690;2023-03-01T10:07:44;40.77;;;22.23;;
19341;SDS011;9807;48.258;12.690;2023-03-01T10:13:10;38.50;;;21.67;;
19341;SDS011;9807;48.258;12.690;2023-03-01T10:15:47;40.73;;;23.43;;
19341;SDS011;9807;48.258;12.690;2023-03-01T10:18:36;36.70;;;21.67;;
19341;SDS011;9807;48.258;12.690;2023-03-01T10:21:15;41.13;;;22.17;;
19341;SDS011;9807;48.258;12.690;2023-03-01T10:23:51;39.90;;;20.20;;
19341;SDS011;9807;48.258;12.690;2023-03-01T10:29:06;37.27;;;21.77;;
19341;SDS011;9807;48.258;12.690;2023-03-01T10:34:16;43.17;;;22.20;;
19341;SDS011;9807;48.258;12.690;2023-03-01T10:36:51;37.07;;;21.90;;
19341;SDS011;9807;48.258;12.690;2023-03-01T10:39:28;42.43;;;22.30;;
19341;SDS011;9807;48.258;12.690;2023-03-01T10:42:01;39.43;;;20.67;;
19341;SDS011;9807;48.258;12.690;2023-03-01T10:44:39;39.03;;;21.80;;
19341;SDS011;9807;48.258;12.690;2023-03-01T10:47:12;37.17;;;21.27;;
19341;SDS011;9807;48.258;12.690;2023-03-01T10:49:49;37.33;;;21.23;;
19341;SDS011;9807;48.258;12.690;2023-03-01T10:52:26;38.47;;;21.50;;
19341;SDS011;9807;48.258;12.690;2023-03-01T10:55:01;35.60;;;21.17;;
19341;SDS011;9807;48.258;12.690;2023-03-01T10:58:05;37.83;;;21.67;;
19341;SDS011;9807;48.258;12.690;2023-03-01T11:03:21;35.23;;;19.83;;
19341;SDS011;9807;48.258;12.690;2023-03-01T11:05:59;38.07;;;20.50;;
19341;SDS011;9807;48.258;12.690;2023-03-01T11:08:46;36.63;;;21.00;;
19341;SDS011;9807;48.258;12.690;2023-03-01T11:11:20;39.50;;;21.40;;
19341;SDS011;9807;48.258;12.690;2023-03-01T11:16:38;35.93;;;20.33;;
19341;SDS011;9807;48.258;12.690;2023-03-01T11:21:36;32.57;;;19.70;;
19341;SDS011;9807;48.258;12.690;2023-03-01T11:24:28;32.70;;;19.20;;
19341;SDS011;9807;48.258;12.690;2023-03-01T11:27:21;33.90;;;20.27;;
19341;SDS011;9807;48.258;12.690;2023-03-01T11:29:59;34.97;;;19.87;;
19341;SDS011;9807;48.258;12.690;2023-03-01T11:32:34;38.50;;;20.20;;
19341;SDS011;9807;48.258;12.690;2023-03-01T11:35:22;35.37;;;19.53;;
19341;SDS011;9807;48.258;12.690;2023-03-01T11:43:35;33.37;;;18.73;;
19341;SDS011;9807;48.258;12.690;2023-03-01T11:59:54;31.87;;;18.67;;
19341;SDS011;9807;48.258;12.690;2023-03-01T12:05:19;38.40;;;20.50;;
19341;SDS011;9807;48.258;12.690;2023-03-01T12:07:47;34.83;;;19.80;;
19341;SDS011;9807;48.258;12.690;2023-03-01T12:10:19;33.17;;;18.30;;
19341;SDS011;9807;48.258;12.690;2023-03-01T12:12:56;33.07;;;19.80;;
19341;SDS011;9807;48.258;12.690;2023-03-01T12:15:30;34.97;;;19.77;;
19341;SDS011;9807;48.258;12.690;2023-03-01T12:24:18;31.20;;;18.60;;
19341;SDS011;9807;48.258;12.690;2023-03-01T12:32:33;32.37;;;19.53;;
19341;SDS011;9807;48.258;12.690;2023-03-01T12:42:53;33.70;;;19.37;;
19341;SDS011;9807;48.258;12.690;2023-03-01T12:46:03;31.83;;;18.37;;
19341;SDS011;9807;48.258;12.690;2023-03-01T12:51:16;32.10;;;18.73;;
19341;SDS011;9807;48.258;12.690;2023-03-01T12:53:49;31.97;;;18.27;;
19341;SDS011;9807;48.258;12.690;2023-03-01T12:56:20;31.20;;;18.37;;
19341;SDS011;9807;48.258;12.690;2023-03-01T12:58:54;28.20;;;17.00;;
19341;SDS011;9807;48.258;12.690;2023-03-01T13:01:33;28.93;;;17.33;;
19341;SDS011;9807;48.258;12.690;2023-03-01T13:09:54;33.50;;;17.23;;
19341;SDS011;9807;48.258;12.690;2023-03-01T13:17:48;30.40;;;17.57;;
19341;SDS011;9807;48.258;12.690;2023-03-01T13:20:20;31.63;;;18.10;;
19341;SDS011;9807;48.258;12.690;2023-03-01T13:31:08;29.67;;;17.17;;
19341;SDS011;9807;48.258;12.690;2023-03-01T13:33:57;29.83;;;16.13;;
19341;SDS011;9807;48.258;12.690;2023-03-01T13:46:55;25.53;;;14.90;;
19341;SDS011;9807;48.258;12.690;2023-03-01T13:49:27;27.33;;;14.83;;
19341;SDS011;9807;48.258;12.690;2023-03-01T13:51:56;26.70;;;15.23;;
19341;SDS011;9807;48.258;12.690;2023-03-01T13:54:31;25.77;;;14.73;;
19341;SDS011;9807;48.258;12.690;2023-03-01T13:56:59;24.23;;;14.33;;
19341;SDS011;9807;48.258;12.690;2023-03-01T13:59:26;22.53;;;13.17;;
19341;SDS011;9807;48.258;12.690;2023-03-01T14:01:58;27.00;;;14.50;;
19341;SDS011;9807;48.258;12.690;2023-03-01T14:06:52;24.17;;;13.60;;
19341;SDS011;9807;48.258;12.690;2023-03-01T14:09:33;21.63;;;12.93;;
19341;SDS011;9807;48.258;12.690;2023-03-01T14:15:15;27.23;;;13.13;;
19341;SDS011;9807;48.258;12.690;2023-03-01T14:18:20;23.47;;;12.77;;
19341;SDS011;9807;48.258;12.690;2023-03-01T14:20:49;20.27;;;12.60;;
19341;SDS011;9807;48.258;12.690;2023-03-01T14:23:22;21.87;;;11.97;;
19341;SDS011;9807;48.258;12.690;2023-03-01T14:25:53;20.57;;;11.20;;
19341;SDS011;9807;48.258;12.690;2023-03-01T14:28:21;17.83;;;11.53;;
19341;SDS011;9807;48.258;12.690;2023-03-01T14:30:56;23.03;;;12.10;;
19341;SDS011;9807;48.258;12.690;2023-03-01T14:33:24;19.20;;;10.93;;
19341;SDS011;9807;48.258;12.690;2023-03-01T14:40:59;19.00;;;11.70;;
19341;SDS011;9807;48.258;12.690;2023-03-01T14:43:31;20.53;;;11.67;;
19341;SDS011;9807;48.258;12.690;2023-03-01T14:45:57;21.60;;;11.53;;
19341;SDS011;9807;48.258;12.690;2023-03-01T14:48:23;20.33;;;11.50;;
19341;SDS011;9807;48.258;12.690;2023-03-01T14:50:51;20.63;;;12.50;;
19341;SDS011;9807;48.258;12.690;2023-03-01T14:53:21;21.90;;;12.13;;
19341;SDS011;9807;48.258;12.690;2023-03-01T14:55:52;20.23;;;11.53;;
19341;SDS011;9807;48.258;12.690;2023-03-01T14:58:23;18.43;;;10.70;;
19341;SDS011;9807;48.258;12.690;2023-03-01T15:00:54;22.33;;;11.27;;
19341;SDS011;9807;48.258;12.690;2023-03-01T15:03:26;20.83;;;10.70;;
19341;SDS011;9807;48.258;12.690;2023-03-01T15:05:59;17.47;;;10.23;;
19341;SDS011;9807;48.258;12.690;2023-03-01T15:08:27;16.77;;;10.27;;
19341;SDS011;9807;48.258;12.690;2023-03-01T15:11:02;16.50;;;9.97;;
19341;SDS011;9807;48.258;12.690;2023-03-01T15:13:33;17.33;;;10.33;;
19341;SDS011;9807;48.258;12.690;2023-03-01T15:16:09;19.70;;;10.67;;
19341;SDS011;9807;48.258;12.690;2023-03-01T15:18:37;18.37;;;9.33;;
19341;SDS011;9807;48.258;12.690;2023-03-01T15:21:14;19.50;;;9.53;;
19341;SDS011;9807;48.258;12.690;2023-03-01T15:23:47;18.40;;;9.93;;
19341;SDS011;9807;48.258;12.690;2023-03-01T15:26:25;16.77;;;9.50;;
19341;SDS011;9807;48.258;12.690;2023-03-01T15:28:55;18.17;;;9.33;;
19341;SDS011;9807;48.258;12.690;2023-03-01T15:31:25;17.33;;;9.97;;
19341;SDS011;9807;48.258;12.690;2023-03-01T15:33:53;17.00;;;8.73;;
19341;SDS011;9807;48.258;12.690;2023-03-01T15:36:47;20.10;;;9.30;;
19341;SDS011;9807;48.258;12.690;2023-03-01T15:39:25;17.10;;;9.73;;
19341;SDS011;9807;48.258;12.690;2023-03-01T15:41:52;16.87;;;9.20;;
19341;SDS011;9807;48.258;12.690;2023-03-01T15:44:25;23.10;;;10.90;;
19341;SDS011;9807;48.258;12.690;2023-03-01T15:46:54;14.03;;;9.23;;
19341;SDS011;9807;48.258;12.690;2023-03-01T15:49:39;19.07;;;10.17;;
19341;SDS011;9807;48.258;12.690;2023-03-01T15:52:12;19.53;;;10.27;;
19341;SDS011;9807;48.258;12.690;2023-03-01T15:54:46;17.73;;;10.17;;
19341;SDS011;9807;48.258;12.690;2023-03-01T15:57:14;21.00;;;11.30;;
19341;SDS011;9807;48.258;12.690;2023-03-01T15:59:41;18.07;;;10.20;;
19341;SDS011;9807;48.258;12.690;2023-03-01T16:02:12;18.43;;;9.80;;
19341;SDS011;9807;48.258;12.690;2023-03-01T16:04:38;20.90;;;11.03;;
19341;SDS011;9807;48.258;12.690;2023-03-01T16:07:05;19.50;;;10.07;;
19341;SDS011;9807;48.258;12.690;2023-03-01T16:09:31;17.67;;;9.80;;
19341;SDS011;9807;48.258;12.690;2023-03-01T16:11:57;19.37;;;11.30;;
19341;SDS011;9807;48.258;12.690;2023-03-01T16:14:26;18.63;;;9.67;;
19341;SDS011;9807;48.258;12.690;2023-03-01T16:16:55;22.00;;;10.47;;
19341;SDS011;9807;48.258;12.690;2023-03-01T16:19:21;21.83;;;10.23;;
19341;SDS011;9807;48.258;12.690;2023-03-01T16:21:47;18.20;;;10.50;;
19341;SDS011;9807;48.258;12.690;2023-03-01T16:24:14;19.30;;;10.80;;
19341;SDS011;9807;48.258;12.690;2023-03-01T16:26:40;23.67;;;11.37;;
19341;SDS011;9807;48.258;12.690;2023-03-01T16:29:07;22.60;;;12.00;;
19341;SDS011;9807;48.258;12.690;2023-03-01T16:31:33;21.83;;;11.90;;
19341;SDS011;9807;48.258;12.690;2023-03-01T16:33:59;25.60;;;11.77;;
19341;SDS011;9807;48.258;12.690;2023-03-01T16:36:25;22.70;;;11.90;;